createdAt,value
2023-05-01T00:04:05.019Z,100.00
2023-05-01T00:09:08.072Z,100.00
2023-05-01T00:14:10.678Z,100.00
2023-05-01T00:19:18.317Z,100.00
2023-05-01T00:24:20.940Z,100.00
2023-05-01T00:29:23.514Z,100.00
2023-05-01T00:34:27.426Z,100.00
2023-05-01T00:39:30.022Z,100.00
2023-05-01T00:44:32.591Z,100.00
2023-05-01T00:49:36.915Z,100.00
2023-05-01T00:54:40.552Z,100.00
2023-05-01T00:59:43.467Z,100.00
2023-05-01T01:04:49.099Z,100.00
2023-05-01T01:10:04.428Z,100.00
2023-05-01T01:15:14.922Z,100.00
2023-05-01T01:20:29.225Z,100.00
2023-05-01T01:26:11.836Z,100.00
2023-05-01T01:31:19.347Z,100.00
2023-05-01T01:36:34.314Z,100.00
2023-05-01T01:41:39.558Z,100.00
2023-05-01T01:46:43.722Z,100.00
2023-05-01T01:51:48.562Z,100.00
2023-05-01T01:56:52.301Z,100.00
2023-05-01T02:01:57.619Z,100.00
2023-05-01T02:07:02.801Z,100.00
2023-05-01T02:12:07.708Z,100.00
2023-05-01T02:17:11.100Z,100.00
2023-05-01T02:22:17.161Z,100.00
2023-05-01T02:27:24.171Z,100.00
2023-05-01T02:32:28.513Z,100.00
2023-05-01T02:37:33.009Z,100.00
2023-05-01T02:42:36.342Z,100.00
2023-05-01T02:47:43.228Z,100.00
2023-05-01T02:52:48.065Z,100.00
2023-05-01T02:57:51.889Z,100.00
2023-05-01T03:02:54.801Z,100.00
2023-05-01T03:07:58.815Z,100.00
2023-05-01T03:13:01.636Z,100.00
2023-05-01T03:18:04.680Z,100.00
2023-05-01T03:23:09.177Z,100.00
2023-05-01T03:28:11.788Z,100.00
2023-05-01T03:33:14.547Z,100.00
2023-05-01T03:38:18.519Z,100.00
2023-05-01T03:43:21.103Z,100.00
2023-05-01T03:48:24.739Z,100.00
2023-05-01T03:53:28.529Z,100.00
2023-05-01T03:58:32.201Z,100.00
2023-05-01T04:03:34.805Z,100.00
2023-05-01T04:08:38.928Z,100.00
2023-05-01T04:13:41.550Z,100.00
2023-05-01T04:18:44.157Z,100.00
2023-05-01T04:23:48.163Z,100.00
2023-05-01T04:28:50.954Z,100.00
2023-05-01T04:33:53.812Z,100.00
2023-05-01T04:38:57.722Z,100.00
2023-05-01T04:44:00.323Z,100.00
2023-05-01T04:49:03.863Z,100.00
2023-05-01T04:54:07.674Z,100.00
2023-05-01T04:59:10.272Z,100.00
2023-05-01T05:04:12.874Z,100.00
2023-05-01T05:09:18.759Z,100.00
2023-05-01T05:14:23.704Z,100.00
2023-05-01T05:19:26.249Z,100.00
2023-05-01T05:24:30.235Z,100.00
2023-05-01T05:29:32.875Z,100.00
2023-05-01T05:34:35.398Z,100.00
2023-05-01T05:39:39.379Z,100.00
2023-05-01T05:44:42.015Z,100.00
2023-05-01T05:49:44.652Z,100.00
2023-05-01T05:54:48.966Z,100.00
2023-05-01T05:59:51.715Z,100.00
2023-05-01T06:04:54.308Z,100.00
2023-05-01T06:10:01.721Z,100.00
2023-05-01T06:15:04.849Z,100.00
2023-05-01T06:20:08.822Z,100.00
2023-05-01T06:25:12.935Z,92.35
2023-05-01T06:30:15.484Z,92.54
2023-05-01T06:35:18.245Z,96.80
2023-05-01T06:40:22.152Z,100.00
2023-05-01T06:45:24.896Z,100.00
2023-05-01T06:50:28.864Z,100.00
2023-05-01T06:55:35.181Z,100.00
2023-05-01T07:00:38.511Z,100.00
2023-05-01T07:05:41.296Z,100.00
2023-05-01T07:10:45.194Z,100.00
2023-05-01T07:15:49.089Z,100.00
2023-05-01T07:20:52.916Z,93.84
2023-05-01T07:25:56.976Z,75.68
2023-05-01T07:31:01.518Z,60.59
2023-05-01T07:36:04.613Z,59.60
2023-05-01T07:41:08.518Z,58.16
2023-05-01T07:46:11.805Z,58.38
2023-05-01T07:51:14.674Z,51.29
2023-05-01T07:56:18.556Z,51.27
2023-05-01T08:01:21.264Z,51.79
2023-05-01T08:06:23.782Z,52.46
2023-05-01T08:11:29.407Z,53.87
2023-05-01T08:16:32.106Z,51.12
2023-05-01T08:21:34.720Z,47.16
2023-05-01T08:26:38.590Z,45.08
2023-05-01T08:31:43.229Z,43.79
2023-05-01T08:36:45.853Z,46.11
2023-05-01T08:41:50.129Z,45.72
2023-05-01T08:47:03.823Z,46.51
2023-05-01T08:52:07.539Z,45.66
2023-05-01T08:57:12.984Z,47.99
2023-05-01T09:02:17.032Z,50.84
2023-05-01T09:07:19.702Z,54.07
2023-05-01T09:12:25.919Z,57.44
2023-05-01T09:17:29.104Z,61.07
2023-05-01T09:22:32.921Z,63.01
2023-05-01T09:27:38.399Z,64.51
2023-05-01T09:32:42.575Z,64.59
2023-05-01T09:37:51.093Z,62.43
2023-05-01T09:42:56.267Z,55.64
2023-05-01T09:48:11.612Z,55.75
2023-05-01T09:53:14.888Z,55.13
2023-05-01T09:58:29.032Z,51.17
2023-05-01T10:03:33.024Z,46.46
2023-05-01T10:08:46.263Z,43.31
2023-05-01T10:14:06.506Z,42.31
2023-05-01T10:19:09.356Z,42.00
2023-05-01T10:24:12.225Z,37.86
2023-05-01T10:29:16.411Z,42.08
2023-05-01T10:34:23.097Z,37.15
2023-05-01T10:39:33.552Z,35.88
2023-05-01T11:07:17.945Z,34.11
2023-05-01T11:12:52.347Z,33.51
2023-05-01T11:17:55.986Z,35.70
2023-05-01T11:23:00.293Z,37.50
2023-05-01T11:28:06.574Z,37.43
2023-05-01T11:33:11.188Z,38.73
2023-05-01T11:38:19.768Z,41.70
2023-05-01T11:43:23.148Z,40.92
2023-05-01T11:48:25.763Z,41.45
2023-05-01T11:53:30.370Z,40.83
2023-05-01T11:58:37.766Z,42.58
2023-05-01T12:03:43.903Z,42.99
2023-05-01T12:08:51.081Z,43.80
2023-05-01T12:13:54.521Z,41.96
2023-05-01T12:18:57.485Z,39.67
2023-05-01T12:24:10.612Z,39.59
2023-05-01T12:29:13.621Z,37.81
2023-05-01T12:34:16.365Z,35.92
2023-05-01T12:39:22.112Z,36.92
2023-05-01T12:44:26.509Z,37.89
2023-05-01T12:49:30.906Z,38.41
2023-05-01T12:54:37.531Z,37.88
2023-05-01T12:59:41.674Z,40.26
2023-05-01T13:04:45.161Z,39.47
2023-05-01T13:09:57.702Z,38.15
2023-05-01T13:15:00.926Z,38.37
2023-05-01T13:20:05.391Z,38.36
2023-05-01T13:25:17.424Z,39.68
2023-05-01T13:30:22.734Z,42.77
2023-05-01T13:35:26.879Z,45.28
2023-05-01T13:40:30.926Z,42.80
2023-05-01T13:45:33.548Z,40.08
2023-05-01T13:50:36.522Z,38.65
2023-05-01T13:55:42.519Z,36.97
2023-05-01T14:00:45.872Z,36.08
2023-05-01T14:05:49.608Z,35.01
2023-05-01T14:10:54.044Z,35.00
2023-05-01T14:15:56.629Z,34.32
2023-05-01T14:21:00.350Z,37.92
2023-05-01T14:26:05.268Z,39.38
2023-05-01T14:31:08.896Z,41.60
2023-05-01T14:36:13.526Z,39.62
2023-05-01T14:41:19.456Z,38.78
2023-05-01T14:46:31.531Z,39.28
2023-05-01T14:51:34.367Z,40.52
2023-05-01T14:56:38.651Z,42.21
2023-05-01T15:01:41.425Z,41.83
2023-05-01T15:06:44.232Z,45.04
2023-05-01T15:11:48.171Z,51.79
2023-05-01T15:16:50.827Z,58.65
2023-05-01T15:21:53.355Z,61.16
2023-05-01T15:26:58.277Z,64.32
2023-05-01T15:32:10.809Z,73.81
2023-05-01T15:37:14.323Z,75.41
2023-05-01T15:42:18.270Z,77.62
2023-05-01T15:47:20.859Z,82.67
2023-05-01T15:52:24.464Z,85.03
2023-05-01T15:57:28.496Z,89.03
2023-05-01T16:02:33.306Z,93.60
2023-05-01T16:07:36.153Z,93.03
2023-05-01T16:12:40.218Z,96.05
2023-05-01T16:17:44.594Z,96.87
2023-05-01T16:22:47.175Z,96.69
2023-05-01T16:27:51.112Z,98.03
2023-05-01T16:32:53.756Z,98.80
2023-05-01T16:37:56.893Z,100.00
2023-05-01T16:43:02.536Z,98.17
2023-05-01T16:48:06.127Z,95.40
2023-05-01T16:53:08.948Z,96.47
2023-05-01T16:58:12.895Z,91.22
2023-05-01T17:03:16.131Z,87.25
2023-05-01T17:08:18.890Z,81.86
2023-05-01T17:13:22.848Z,75.84
2023-05-01T17:18:25.453Z,67.05
2023-05-01T17:23:28.862Z,63.89
2023-05-01T17:28:32.810Z,60.17
2023-05-01T17:33:35.465Z,59.96
2023-05-01T17:38:38.103Z,60.63
2023-05-01T17:43:44.690Z,65.30
2023-05-01T17:48:47.320Z,75.27
2023-05-01T17:53:49.938Z,86.10
2023-05-01T17:58:54.307Z,95.57
2023-05-01T18:03:57.062Z,100.00
2023-05-01T18:08:59.811Z,100.00
2023-05-01T18:14:04.474Z,100.00
2023-05-01T18:19:07.024Z,100.00
2023-05-01T18:24:09.582Z,100.00
2023-05-01T18:29:13.699Z,100.00
2023-05-01T18:34:16.297Z,100.00
2023-05-01T18:39:21.593Z,100.00
2023-05-01T18:44:26.738Z,100.00
2023-05-01T18:49:30.350Z,100.00
2023-05-01T18:54:32.931Z,100.00
2023-05-01T18:59:36.826Z,100.00
2023-05-01T19:04:55.462Z,100.00
2023-05-01T19:10:00.059Z,100.00
2023-05-01T19:15:04.536Z,100.00
2023-05-01T19:20:08.674Z,100.00
2023-05-01T19:25:12.250Z,100.00
2023-05-01T19:30:16.477Z,100.00
2023-05-01T19:35:19.074Z,100.00
2023-05-01T19:40:21.674Z,100.00
2023-05-01T19:45:25.713Z,100.00
2023-05-01T19:50:28.365Z,100.00
2023-05-01T19:55:30.946Z,100.00
2023-05-01T20:00:34.853Z,100.00
2023-05-01T20:05:37.503Z,100.00
2023-05-01T20:10:40.027Z,100.00
2023-05-01T20:15:44.281Z,100.00
2023-05-01T20:20:46.809Z,100.00
2023-05-01T20:25:51.693Z,100.00
2023-05-01T20:30:55.895Z,100.00
2023-05-01T20:35:59.321Z,100.00
2023-05-01T20:41:02.324Z,100.00
2023-05-01T20:46:06.405Z,100.00
2023-05-01T20:51:09.118Z,100.00
2023-05-01T20:56:11.686Z,100.00
2023-05-01T21:01:15.659Z,100.00
2023-05-01T21:06:18.343Z,100.00
2023-05-01T21:11:20.915Z,100.00
2023-05-01T21:16:27.593Z,100.00
2023-05-01T21:21:30.910Z,100.00
2023-05-01T21:26:33.490Z,100.00
2023-05-01T21:31:37.462Z,100.00
2023-05-01T21:36:44.818Z,100.00
2023-05-01T21:41:48.563Z,100.00
2023-05-01T21:46:56.483Z,100.00
2023-05-01T21:52:00.316Z,100.00
2023-05-01T21:57:05.398Z,100.00
2023-05-01T22:02:11.316Z,100.00
2023-05-01T22:07:13.872Z,100.00
2023-05-01T22:12:16.448Z,100.00
2023-05-01T22:17:24.419Z,100.00
2023-05-01T22:22:27.096Z,100.00
2023-05-01T22:27:29.673Z,100.00
2023-05-01T22:32:33.777Z,100.00
2023-05-01T22:37:36.386Z,100.00
2023-05-01T22:42:39.010Z,100.00
2023-05-01T22:47:42.987Z,100.00
2023-05-01T22:52:46.595Z,100.00
2023-05-01T22:57:49.281Z,100.00
2023-05-01T23:02:53.244Z,100.00
2023-05-01T23:07:55.843Z,100.00
2023-05-01T23:12:59.382Z,100.00
2023-05-01T23:18:03.308Z,100.00
2023-05-01T23:23:12.102Z,100.00
2023-05-01T23:28:21.064Z,100.00
2023-05-01T23:33:25.250Z,100.00
2023-05-01T23:38:28.302Z,100.00
2023-05-01T23:43:30.951Z,100.00
2023-05-01T23:48:35.401Z,100.00
2023-05-01T23:53:37.925Z,100.00
2023-05-01T23:58:40.546Z,100.00
